createdAt,value
2023-03-11T00:00:47.650Z,9.457178
2023-03-11T00:01:47.198Z,9.456980
2023-03-11T00:02:47.171Z,9.457213
2023-03-11T00:03:47.168Z,9.457268
2023-03-11T00:04:47.146Z,9.457319
2023-03-11T00:05:47.177Z,9.457291
2023-03-11T00:06:47.127Z,9.457267
2023-03-11T00:07:47.118Z,9.457176
2023-03-11T00:08:47.110Z,9.457020
2023-03-11T00:09:47.101Z,9.457144
2023-03-11T00:10:47.133Z,9.457278
2023-03-11T00:11:47.083Z,9.457263
2023-03-11T00:12:47.056Z,9.457410
2023-03-11T00:13:48.062Z,9.457382
2023-03-11T00:14:47.080Z,9.457285
2023-03-11T00:15:47.075Z,9.457285
2023-03-11T00:16:47.145Z,9.457262
2023-03-11T00:17:47.024Z,9.457260
2023-03-11T00:18:47.013Z,9.457249
2023-03-11T00:19:46.999Z,9.457326
2023-03-11T00:20:47.005Z,9.457258
2023-03-11T00:21:46.992Z,9.457341
2023-03-11T00:22:46.973Z,9.457266
2023-03-11T00:23:46.980Z,9.457263
2023-03-11T00:24:46.961Z,9.457356
2023-03-11T00:25:46.985Z,9.457282
2023-03-11T00:26:46.935Z,9.457207
2023-03-11T00:27:46.926Z,9.457184
2023-03-11T00:28:46.914Z,9.457303
2023-03-11T00:29:46.907Z,9.457264
2023-03-11T00:30:47.015Z,9.457223
2023-03-11T00:31:46.889Z,9.457220
2023-03-11T00:32:46.958Z,9.457135
2023-03-11T00:33:46.891Z,9.457216
2023-03-11T00:34:46.865Z,9.457177
2023-03-11T00:35:46.916Z,9.457232
2023-03-11T00:36:46.845Z,9.457169
2023-03-11T00:37:46.839Z,9.457117
2023-03-11T00:38:46.877Z,9.456988
2023-03-11T00:39:46.815Z,9.457108
2023-03-11T00:40:46.829Z,9.457245
2023-03-11T00:41:46.797Z,9.457268
2023-03-11T00:42:46.777Z,9.457368
2023-03-11T00:43:46.766Z,9.457156
2023-03-11T00:44:46.764Z,9.457217
2023-03-11T00:45:46.854Z,9.457176
2023-03-11T00:46:46.760Z,9.457239
2023-03-11T00:47:46.736Z,9.457229
2023-03-11T00:48:46.726Z,9.457246
2023-03-11T00:49:46.725Z,9.457246
2023-03-11T00:50:46.731Z,9.457319
2023-03-11T00:51:46.696Z,9.457323
2023-03-11T00:52:46.711Z,9.457211
2023-03-11T00:53:46.676Z,9.457230
2023-03-11T00:54:46.668Z,9.457168
2023-03-11T00:55:46.669Z,9.457183
2023-03-11T00:56:46.639Z,9.457109
2023-03-11T00:57:46.650Z,9.457150
2023-03-11T00:58:46.627Z,9.457181
2023-03-11T00:59:46.618Z,9.457137
2023-03-11T01:00:46.632Z,9.457120
2023-03-11T01:01:46.650Z,9.457256
2023-03-11T01:02:46.597Z,9.457181
2023-03-11T01:03:46.579Z,9.457103
2023-03-11T01:04:46.584Z,9.457108
2023-03-11T01:05:46.579Z,9.457015
2023-03-11T01:06:46.542Z,9.457170
2023-03-11T01:07:46.546Z,9.457124
2023-03-11T01:08:46.523Z,9.457277
2023-03-11T01:09:46.518Z,9.457201
2023-03-11T01:10:46.534Z,9.457252
2023-03-11T01:11:46.499Z,9.457243
2023-03-11T01:12:46.489Z,9.457254
2023-03-11T01:13:46.482Z,9.457133
2023-03-11T01:14:46.470Z,9.457132
2023-03-11T01:15:46.516Z,9.457073
2023-03-11T01:16:46.449Z,9.457110
2023-03-11T01:17:46.457Z,9.457062
2023-03-11T01:18:46.429Z,9.457187
2023-03-11T01:19:46.421Z,9.457171
2023-03-11T01:20:46.444Z,9.457183
2023-03-11T01:21:46.399Z,9.457200
2023-03-11T01:22:46.393Z,9.457172
2023-03-11T01:23:46.386Z,9.457112
2023-03-11T01:24:46.366Z,9.457170
2023-03-11T01:25:46.388Z,9.457126
2023-03-11T01:26:46.356Z,9.457230
2023-03-11T01:27:46.362Z,9.457193
2023-03-11T01:28:46.348Z,9.457170
2023-03-11T01:29:46.337Z,9.457155
2023-03-11T01:30:46.391Z,9.457142
2023-03-11T01:31:46.300Z,9.457239
2023-03-11T01:32:46.375Z,9.457115
2023-03-11T01:33:46.300Z,9.457026
2023-03-11T01:34:46.284Z,9.457236
2023-03-11T01:35:46.352Z,9.457308
2023-03-11T01:36:46.257Z,9.457124
2023-03-11T01:37:46.260Z,9.457191
2023-03-11T01:38:46.230Z,9.457184
2023-03-11T01:39:46.234Z,9.457215
2023-03-11T01:40:46.266Z,9.457114
2023-03-11T01:41:46.210Z,9.457143
2023-03-11T01:42:46.217Z,9.457291
2023-03-11T01:43:46.195Z,9.457227
2023-03-11T01:44:46.192Z,9.457212
2023-03-11T01:45:46.226Z,9.457259
2023-03-11T01:46:46.202Z,9.457375
2023-03-11T01:47:46.170Z,9.457458
2023-03-11T01:48:46.145Z,9.457280
2023-03-11T01:49:46.129Z,9.457396
2023-03-11T01:50:46.163Z,9.457243
2023-03-11T01:51:46.120Z,9.457363
2023-03-11T01:52:46.120Z,9.457252
2023-03-11T01:53:46.109Z,9.457245
2023-03-11T01:54:46.093Z,9.457332
2023-03-11T01:55:46.120Z,9.457291
2023-03-11T01:56:46.070Z,9.457232
2023-03-11T01:57:46.066Z,9.457294
2023-03-11T01:58:46.045Z,9.457166
2023-03-11T01:59:46.076Z,9.457123
2023-03-11T02:00:46.036Z,9.457300
2023-03-11T02:01:46.081Z,9.457198
2023-03-11T02:02:46.036Z,9.457169
2023-03-11T02:03:46.011Z,9.457206
2023-03-11T02:04:46.029Z,9.457261
2023-03-11T02:05:46.003Z,9.457338
2023-03-11T02:06:45.972Z,9.457325
2023-03-11T02:07:45.956Z,9.457576
2023-03-11T02:08:45.947Z,9.457227
2023-03-11T02:09:45.952Z,9.457275
2023-03-11T02:10:45.964Z,9.457249
2023-03-11T02:11:45.926Z,9.457160
2023-03-11T02:12:45.916Z,9.456927
2023-03-11T02:13:45.915Z,9.457111
2023-03-11T02:14:45.902Z,9.457154
2023-03-11T02:15:45.952Z,9.457177
2023-03-11T02:16:45.879Z,9.457201
2023-03-11T02:17:45.868Z,9.457312
2023-03-11T02:18:45.857Z,9.457239
2023-03-11T02:19:45.870Z,9.457245
2023-03-11T02:20:45.840Z,9.457287
2023-03-11T02:21:45.834Z,9.457224
2023-03-11T02:22:45.841Z,9.457266
2023-03-11T02:23:45.819Z,9.457207
2023-03-11T02:24:45.828Z,9.457193
2023-03-11T02:25:45.806Z,9.457277
2023-03-11T02:26:45.806Z,9.457265
2023-03-11T02:27:45.785Z,9.457167
2023-03-11T02:28:45.772Z,9.457191
2023-03-11T02:29:45.770Z,9.457168
2023-03-11T02:30:45.757Z,9.457101
2023-03-11T02:31:45.828Z,9.457147
2023-03-11T02:32:45.808Z,9.457267
2023-03-11T02:33:45.721Z,9.457252
2023-03-11T02:34:45.712Z,9.457198
2023-03-11T02:35:45.724Z,9.457271
2023-03-11T02:36:45.721Z,9.457208
2023-03-11T02:37:45.694Z,9.457276
2023-03-11T02:38:45.692Z,9.457245
2023-03-11T02:39:45.691Z,9.457253
2023-03-11T02:40:45.671Z,9.457279
2023-03-11T02:41:45.684Z,9.457110
2023-03-11T02:42:45.644Z,9.457147
2023-03-11T02:43:45.640Z,9.457145
2023-03-11T02:44:45.626Z,9.457057
2023-03-11T02:45:45.614Z,9.457165
2023-03-11T02:46:45.739Z,9.457189
2023-03-11T02:47:45.598Z,9.457105
2023-03-11T02:48:45.585Z,9.457166
2023-03-11T02:49:45.572Z,9.457257
2023-03-11T02:50:45.565Z,9.457160
2023-03-11T02:51:45.589Z,9.457165
2023-03-11T02:52:45.567Z,9.457280
2023-03-11T02:53:45.552Z,9.457377
2023-03-11T02:54:45.525Z,9.457268
2023-03-11T02:55:45.513Z,9.457182
2023-03-11T02:56:45.575Z,9.457324
2023-03-11T02:57:45.497Z,9.457198
2023-03-11T02:58:45.496Z,9.457158
2023-03-11T02:59:45.491Z,9.457171
2023-03-11T03:00:45.492Z,9.457224
2023-03-11T03:01:45.485Z,9.457225
2023-03-11T03:02:45.462Z,9.457193
2023-03-11T03:03:45.491Z,9.457286
2023-03-11T03:04:45.429Z,9.457226
2023-03-11T03:05:45.421Z,9.457192
2023-03-11T03:06:45.460Z,9.457354
2023-03-11T03:07:45.408Z,9.457459
2023-03-11T03:08:45.399Z,9.457338
2023-03-11T03:09:45.392Z,9.457166
2023-03-11T03:10:45.395Z,9.457220
2023-03-11T03:11:45.392Z,9.457317
2023-03-11T03:12:45.366Z,9.457224
2023-03-11T03:13:45.340Z,9.457187
2023-03-11T03:14:45.333Z,9.457220
2023-03-11T03:15:45.329Z,9.457305
2023-03-11T03:16:45.441Z,9.457330
2023-03-11T03:17:45.314Z,9.457242
2023-03-11T03:18:45.299Z,9.457053
2023-03-11T03:19:45.285Z,9.456589
2023-03-11T03:20:45.284Z,9.456681
2023-03-11T03:21:45.283Z,9.456901
2023-03-11T03:22:45.275Z,9.456968
2023-03-11T03:23:45.253Z,9.457206
2023-03-11T03:24:45.244Z,9.457266
2023-03-11T03:25:45.253Z,9.457178
2023-03-11T03:26:45.242Z,9.457242
2023-03-11T03:27:45.223Z,9.457187
2023-03-11T03:28:45.205Z,9.457170
2023-03-11T03:29:45.191Z,9.457117
2023-03-11T03:30:45.177Z,9.457149
2023-03-11T03:31:45.205Z,9.457147
2023-03-11T03:32:45.209Z,9.457120
2023-03-11T03:33:45.156Z,9.457128
2023-03-11T03:34:45.145Z,9.457114
2023-03-11T03:35:45.197Z,9.457194
2023-03-11T03:36:45.152Z,9.457145
2023-03-11T03:37:45.135Z,9.457088
2023-03-11T03:38:45.124Z,9.457113
2023-03-11T03:39:45.096Z,9.457106
2023-03-11T03:40:45.113Z,9.457084
2023-03-11T03:41:45.092Z,9.457134
2023-03-11T03:42:45.079Z,9.457182
2023-03-11T03:43:45.080Z,9.457170
2023-03-11T03:44:45.058Z,9.457131
2023-03-11T03:45:45.112Z,9.457145
2023-03-11T03:46:45.058Z,9.457123
2023-03-11T03:47:45.030Z,9.457153
2023-03-11T03:48:45.037Z,9.457254
2023-03-11T03:49:44.995Z,9.457239
2023-03-11T03:50:44.992Z,9.457294
2023-03-11T03:51:45.000Z,9.457197
2023-03-11T03:52:44.993Z,9.457258
2023-03-11T03:53:44.967Z,9.457376
2023-03-11T03:54:44.954Z,9.457335
2023-03-11T03:55:44.947Z,9.457282
2023-03-11T03:56:44.966Z,9.457154
2023-03-11T03:57:44.944Z,9.457172
2023-03-11T03:58:44.924Z,9.457211
2023-03-11T03:59:44.904Z,9.457294
2023-03-11T04:00:44.892Z,9.457236
2023-03-11T04:01:44.908Z,9.457129
2023-03-11T04:02:44.881Z,9.457248
2023-03-11T04:03:44.947Z,9.457247
2023-03-11T04:04:44.857Z,9.457306
2023-03-11T04:05:44.849Z,9.457234
2023-03-11T04:06:44.866Z,9.457283
2023-03-11T04:07:44.834Z,9.457184
2023-03-11T04:08:44.826Z,9.457079
2023-03-11T04:09:44.809Z,9.456934
2023-03-11T04:10:44.816Z,9.457006
2023-03-11T04:11:44.819Z,9.457296
2023-03-11T04:12:44.781Z,9.457266
2023-03-11T04:13:44.871Z,9.457113
2023-03-11T04:14:44.771Z,9.457162
2023-03-11T04:15:44.748Z,9.457175
2023-03-11T04:16:44.840Z,9.457184
2023-03-11T04:17:44.758Z,9.457174
2023-03-11T04:18:44.722Z,9.457068
2023-03-11T04:19:44.716Z,9.457128
2023-03-11T04:20:44.710Z,9.457249
2023-03-11T04:21:44.712Z,9.457219
2023-03-11T04:22:44.690Z,9.457130
2023-03-11T04:23:44.680Z,9.457121
2023-03-11T04:24:44.660Z,9.457179
2023-03-11T04:25:44.657Z,9.457168
2023-03-11T04:26:44.684Z,9.457058
2023-03-11T04:27:44.634Z,9.457187
2023-03-11T04:28:44.629Z,9.457134
2023-03-11T04:29:44.610Z,9.457126
2023-03-11T04:30:44.621Z,9.457387
2023-03-11T04:31:44.623Z,9.457303
2023-03-11T04:32:44.588Z,9.457188
2023-03-11T04:33:44.582Z,9.457120
2023-03-11T04:34:44.560Z,9.457153
2023-03-11T04:35:44.597Z,9.457170
2023-03-11T04:36:44.553Z,9.457179
2023-03-11T04:37:44.569Z,9.457208
2023-03-11T04:38:44.544Z,9.457183
2023-03-11T04:40:16.405Z,9.457173
2023-03-11T04:40:44.537Z,9.457091
2023-03-11T04:41:44.547Z,9.457198
2023-03-11T04:42:45.493Z,9.457147
2023-03-11T04:43:44.483Z,9.457236
2023-03-11T04:44:44.469Z,9.457295
2023-03-11T04:45:44.457Z,9.457232
2023-03-11T04:46:44.478Z,9.457231
2023-03-11T04:47:44.444Z,9.457180
2023-03-11T04:48:44.425Z,9.457260
2023-03-11T04:49:44.421Z,9.457260
2023-03-11T04:50:44.432Z,9.457253
2023-03-11T04:51:44.424Z,9.457343
2023-03-11T04:52:44.394Z,9.457234
2023-03-11T04:53:44.379Z,9.457207
2023-03-11T04:54:44.385Z,9.457123
2023-03-11T04:55:44.362Z,9.457246
2023-03-11T04:56:44.392Z,9.457452
2023-03-11T04:57:44.345Z,9.457352
2023-03-11T04:58:44.340Z,9.457421
2023-03-11T04:59:44.325Z,9.457392
2023-03-11T05:00:44.337Z,9.457391
2023-03-11T05:01:44.361Z,9.457296
2023-03-11T05:02:44.300Z,9.457055
2023-03-11T05:03:44.290Z,9.457195
2023-03-11T05:04:44.334Z,9.457178
2023-03-11T05:05:44.269Z,9.457192
2023-03-11T05:06:45.310Z,9.457303
2023-03-11T05:07:44.260Z,9.457336
2023-03-11T05:08:44.246Z,9.457029
2023-03-11T05:09:44.233Z,9.457342
2023-03-11T05:10:44.218Z,9.457232
2023-03-11T05:11:44.237Z,9.457238
2023-03-11T05:12:44.202Z,9.457194
2023-03-11T05:13:44.211Z,9.456964
2023-03-11T05:14:44.191Z,9.456896
2023-03-11T05:15:44.208Z,9.456733
2023-03-11T05:16:44.178Z,9.456953
2023-03-11T05:17:44.178Z,9.457127
2023-03-11T05:18:44.147Z,9.457207
2023-03-11T05:19:44.135Z,9.457138
2023-03-11T05:20:44.142Z,9.457047
2023-03-11T05:21:44.119Z,9.457181
2023-03-11T05:22:44.130Z,9.457213
2023-03-11T05:23:44.110Z,9.457158
2023-03-11T05:24:44.093Z,9.457088
2023-03-11T05:25:44.093Z,9.456825
2023-03-11T05:26:44.105Z,9.456954
2023-03-11T05:27:44.103Z,9.457108
2023-03-11T05:28:44.060Z,9.457280
2023-03-11T05:29:44.056Z,9.457316
2023-03-11T05:30:44.065Z,9.457178
2023-03-11T05:31:44.033Z,9.457233
2023-03-11T05:32:44.109Z,9.457164
2023-03-11T05:33:44.019Z,9.457120
2023-03-11T05:34:44.000Z,9.457087
2023-03-11T05:35:44.091Z,9.457023
2023-03-11T05:36:43.986Z,9.456883
2023-03-11T05:37:44.002Z,9.457344
2023-03-11T05:38:43.979Z,9.457110
2023-03-11T05:39:43.988Z,9.457104
2023-03-11T05:40:43.947Z,9.457308
2023-03-11T05:41:43.942Z,9.457351
2023-03-11T05:42:43.953Z,9.457211
2023-03-11T05:43:43.932Z,9.457006
2023-03-11T05:44:43.913Z,9.457086
2023-03-11T05:45:43.901Z,9.457230
2023-03-11T05:46:43.909Z,9.457052
2023-03-11T05:47:43.926Z,9.456933
2023-03-11T05:48:43.887Z,9.457004
2023-03-11T05:49:43.874Z,9.457236
2023-03-11T05:50:43.859Z,9.457137
2023-03-11T05:51:43.855Z,9.457139
2023-03-11T05:52:43.853Z,9.457229
2023-03-11T05:53:43.828Z,9.457115
2023-03-11T05:54:43.821Z,9.457145
2023-03-11T05:55:43.811Z,9.457296
2023-03-11T05:56:43.799Z,9.456983
2023-03-11T05:57:43.805Z,9.456974
2023-03-11T05:58:43.773Z,9.457160
2023-03-11T05:59:43.773Z,9.457145
2023-03-11T06:00:43.775Z,9.457279
2023-03-11T06:01:43.758Z,9.457303
2023-03-11T06:02:43.781Z,9.457179
2023-03-11T06:03:43.759Z,9.457444
2023-03-11T06:04:43.815Z,9.457379
2023-03-11T06:05:43.714Z,9.457584
2023-03-11T06:06:43.719Z,9.457162
2023-03-11T06:07:43.714Z,9.457361
2023-03-11T06:08:43.693Z,9.457249
2023-03-11T06:09:43.699Z,9.457211
2023-03-11T06:10:43.698Z,9.457320
2023-03-11T06:11:43.656Z,9.456970
2023-03-11T06:12:43.678Z,9.457178
2023-03-11T06:13:43.640Z,9.457430
2023-03-11T06:14:43.641Z,9.457419
2023-03-11T06:15:43.622Z,9.457212
2023-03-11T06:16:43.608Z,9.457231
2023-03-11T06:17:43.626Z,9.457111
2023-03-11T06:18:43.596Z,9.456786
2023-03-11T06:19:43.585Z,9.456993
2023-03-11T06:20:43.566Z,9.456923
2023-03-11T06:21:43.564Z,9.456942
2023-03-11T06:22:43.580Z,9.456894
2023-03-11T06:23:43.547Z,9.457073
2023-03-11T06:24:43.537Z,9.457102
2023-03-11T06:25:44.557Z,9.457299
2023-03-11T06:26:43.516Z,9.457267
2023-03-11T06:27:43.536Z,9.457192
2023-03-11T06:28:43.500Z,9.457355
2023-03-11T06:29:43.502Z,9.457504
2023-03-11T06:30:43.483Z,9.457059
2023-03-11T06:31:43.494Z,9.456785
2023-03-11T06:32:43.517Z,9.456601
2023-03-11T06:33:43.452Z,9.457042
2023-03-11T06:34:43.453Z,9.457266
2023-03-11T06:35:43.460Z,9.457366
2023-03-11T06:36:43.421Z,9.457467
2023-03-11T06:37:43.441Z,9.457333
2023-03-11T06:38:43.410Z,9.457320
2023-03-11T06:39:43.397Z,9.457294
2023-03-11T06:40:43.386Z,9.457282
2023-03-11T06:41:43.380Z,9.457289
2023-03-11T06:42:43.379Z,9.457320
2023-03-11T06:43:43.360Z,9.457287
2023-03-11T06:44:43.353Z,9.457305
2023-03-11T06:45:43.383Z,9.457256
2023-03-11T06:46:43.338Z,9.457137
2023-03-11T06:47:43.358Z,9.457380
2023-03-11T06:48:43.322Z,9.457310
2023-03-11T06:49:43.312Z,9.457290
2023-03-11T06:50:43.296Z,9.457242
2023-03-11T06:51:43.300Z,9.457245
2023-03-11T06:52:43.304Z,9.457237
2023-03-11T06:53:43.267Z,9.457235
2023-03-11T06:54:43.260Z,9.457131
2023-03-11T06:55:43.245Z,9.457257
2023-03-11T06:56:43.240Z,9.457254
2023-03-11T06:57:43.260Z,9.457355
2023-03-11T06:58:43.220Z,9.457274
2023-03-11T06:59:43.212Z,9.457287
2023-03-11T07:00:43.322Z,9.457253
2023-03-11T07:01:43.194Z,9.457178
2023-03-11T07:02:43.213Z,9.457182
2023-03-11T07:03:43.204Z,9.457105
2023-03-11T07:04:43.196Z,9.457166
2023-03-11T07:05:43.165Z,9.457194
2023-03-11T07:06:43.166Z,9.457047
2023-03-11T07:07:43.162Z,9.457129
2023-03-11T07:08:43.123Z,9.457249
2023-03-11T07:09:43.127Z,9.457261
2023-03-11T07:10:43.115Z,9.457293
2023-03-11T07:11:43.105Z,9.457363
2023-03-11T07:12:43.116Z,9.457290
2023-03-11T07:13:43.087Z,9.457172
2023-03-11T07:14:43.073Z,9.457135
2023-03-11T07:15:43.064Z,9.457152
2023-03-11T07:16:43.104Z,9.457173
2023-03-11T07:17:43.075Z,9.457208
2023-03-11T07:18:43.051Z,9.457324
2023-03-11T07:19:43.027Z,9.457352
2023-03-11T07:20:44.022Z,9.457271
2023-03-11T07:21:43.026Z,9.457213
2023-03-11T07:22:43.044Z,9.457226
2023-03-11T07:23:43.013Z,9.457219
2023-03-11T07:24:43.001Z,9.457211
2023-03-11T07:25:42.995Z,9.457351
2023-03-11T07:26:44.501Z,9.457248
2023-03-11T07:27:43.976Z,9.457250
2023-03-11T07:28:42.967Z,9.457268
2023-03-11T07:29:42.945Z,9.457210
2023-03-11T07:30:42.948Z,9.457209
2023-03-11T07:31:42.953Z,9.457206
2023-03-11T07:32:43.005Z,9.457227
2023-03-11T07:33:42.922Z,9.457172
2023-03-11T07:34:42.896Z,9.457179
2023-03-11T07:35:42.927Z,9.457270
2023-03-11T07:36:42.894Z,9.457325
2023-03-11T07:37:42.895Z,9.457274
2023-03-11T07:38:42.870Z,9.457089
2023-03-11T07:39:42.861Z,9.457021
2023-03-11T07:40:43.849Z,9.456943
2023-03-11T07:41:42.844Z,9.457164
2023-03-11T07:42:42.851Z,9.457216
2023-03-11T07:43:42.898Z,9.457074
2023-03-11T07:44:42.808Z,9.457104
2023-03-11T07:45:42.832Z,9.456990
2023-03-11T07:46:42.803Z,9.457079
2023-03-11T07:47:42.818Z,9.456984
2023-03-11T07:48:42.816Z,9.457014
2023-03-11T07:49:42.775Z,9.457259
2023-03-11T07:50:42.769Z,9.457263
2023-03-11T07:51:42.770Z,9.457295
2023-03-11T07:52:42.790Z,9.457149
2023-03-11T07:53:42.748Z,9.457233
2023-03-11T07:54:42.732Z,9.457261
2023-03-11T07:55:42.724Z,9.457127
2023-03-11T07:56:42.715Z,9.457115
2023-03-11T07:57:42.803Z,9.457293
2023-03-11T07:58:45.167Z,9.457149
2023-03-11T07:59:42.702Z,9.457147
2023-03-11T08:00:42.687Z,9.457094
2023-03-11T08:01:42.674Z,9.457274
2023-03-11T08:02:42.785Z,9.457151
2023-03-11T08:03:42.682Z,9.457284
2023-03-11T08:04:42.660Z,9.457241
2023-03-11T08:05:42.644Z,9.457225
2023-03-11T08:06:42.623Z,9.457171
2023-03-11T08:07:43.670Z,9.457362
2023-03-11T08:08:42.613Z,9.457304
2023-03-11T08:09:42.611Z,9.457397
2023-03-11T08:10:42.598Z,9.457298
2023-03-11T08:11:42.596Z,9.457291
2023-03-11T08:12:42.601Z,9.457337
2023-03-11T08:13:42.589Z,9.457272
2023-03-11T08:14:42.575Z,9.457256
2023-03-11T08:15:42.603Z,9.457500
2023-03-11T08:16:42.546Z,9.457452
2023-03-11T08:17:42.569Z,9.457401
2023-03-11T08:18:42.537Z,9.457339
2023-03-11T08:19:43.541Z,9.457322
2023-03-11T08:20:42.521Z,9.457289
2023-03-11T08:21:42.521Z,9.457265
2023-03-11T08:22:52.069Z,9.457324
2023-03-11T08:23:44.563Z,9.457376
2023-03-11T08:24:42.487Z,9.457323
2023-03-11T08:25:42.483Z,9.457434
2023-03-11T08:26:42.480Z,9.457483
2023-03-11T08:27:42.459Z,9.457314
2023-03-11T08:28:42.464Z,9.457111
2023-03-11T08:29:42.436Z,9.457240
2023-03-11T08:30:42.654Z,9.457258
2023-03-11T08:31:42.430Z,9.457272
2023-03-11T08:32:42.565Z,9.457354
2023-03-11T08:58:21.017Z,9.457316
2023-03-11T08:59:20.991Z,9.457438
2023-03-11T09:00:20.975Z,9.457353
2023-03-11T09:01:20.964Z,9.457376
2023-03-11T09:02:20.989Z,9.457461
2023-03-11T09:03:20.990Z,9.457651
2023-03-11T09:04:20.943Z,9.457483
2023-03-11T09:05:20.934Z,9.457391
2023-03-11T09:06:20.928Z,9.457634
2023-03-11T09:07:28.810Z,9.457150
2023-03-11T09:08:21.934Z,9.457271
2023-03-11T09:09:20.889Z,9.456967
2023-03-11T09:10:20.889Z,9.456893
2023-03-11T09:11:21.435Z,9.457054
2023-03-11T09:12:20.867Z,9.457308
2023-03-11T09:13:21.029Z,9.457133
2023-03-11T09:14:20.851Z,9.457063
2023-03-11T09:15:20.845Z,9.457045
2023-03-11T09:16:20.864Z,9.457159
2023-03-11T09:17:20.825Z,9.457003
2023-03-11T09:18:20.833Z,9.457154
2023-03-11T09:19:20.808Z,9.457158
2023-03-11T09:20:20.820Z,9.457205
2023-03-11T09:21:20.802Z,9.457424
2023-03-11T09:22:20.783Z,9.457495
2023-03-11T09:23:20.792Z,9.457038
2023-03-11T09:24:20.759Z,9.457032
2023-03-11T09:25:20.761Z,9.457097
2023-03-11T09:26:20.750Z,9.457006
2023-03-11T09:27:20.725Z,9.457044
2023-03-11T09:28:20.738Z,9.457190
2023-03-11T09:29:20.719Z,9.457198
2023-03-11T09:30:20.704Z,9.457111
2023-03-11T09:31:20.747Z,9.457170
2023-03-11T09:32:20.721Z,9.457203
2023-03-11T09:33:20.698Z,9.457052
2023-03-11T09:34:20.673Z,9.457080
2023-03-11T09:35:20.737Z,9.457172
2023-03-11T09:36:20.662Z,9.457132
2023-03-11T09:37:20.643Z,9.457470
2023-03-11T09:38:20.650Z,9.457276
2023-03-11T09:39:20.621Z,9.457417
2023-03-11T09:40:20.605Z,9.457056
2023-03-11T09:41:20.596Z,9.457079
2023-03-11T09:42:20.585Z,9.456811
2023-03-11T09:43:20.593Z,9.456877
2023-03-11T09:44:20.563Z,9.457120
2023-03-11T09:45:20.562Z,9.457153
2023-03-11T09:46:20.596Z,9.457027
2023-03-11T09:47:20.543Z,9.456921
2023-03-11T09:48:22.744Z,9.457211
2023-03-11T09:49:21.545Z,9.457301
2023-03-11T09:50:20.510Z,9.457330
2023-03-11T09:51:20.497Z,9.457286
2023-03-11T09:52:20.494Z,9.457386
2023-03-11T09:53:20.472Z,9.457282
2023-03-11T09:54:20.495Z,9.457347
2023-03-11T09:55:20.461Z,9.457347
2023-03-11T09:56:20.451Z,9.457358
2023-03-11T09:57:20.434Z,9.457516
2023-03-11T09:58:20.441Z,9.457235
2023-03-11T09:59:20.427Z,9.457235
2023-03-11T10:00:20.423Z,9.457375
2023-03-11T10:01:20.412Z,9.457321
2023-03-11T10:02:20.619Z,9.457249
2023-03-11T10:03:20.445Z,9.457398
2023-03-11T10:04:20.370Z,9.457296
2023-03-11T10:05:20.361Z,9.457232
2023-03-11T10:06:20.364Z,9.457190
2023-03-11T10:07:20.422Z,9.457082
2023-03-11T10:08:20.358Z,9.456740
2023-03-11T10:09:20.309Z,9.456908
2023-03-11T10:10:20.310Z,9.457292
2023-03-11T10:11:20.291Z,9.457493
2023-03-11T10:12:20.287Z,9.457427
2023-03-11T10:13:20.292Z,9.457038
2023-03-11T10:14:20.257Z,9.457040
2023-03-11T10:15:21.253Z,9.456605
2023-03-11T10:16:20.320Z,9.456739
2023-03-11T10:17:20.225Z,9.456806
2023-03-11T10:18:20.237Z,9.456438
2023-03-11T10:19:20.218Z,9.456558
2023-03-11T10:20:20.199Z,9.456928
2023-03-11T10:21:20.183Z,9.457077
2023-03-11T10:22:20.178Z,9.457043
2023-03-11T10:23:20.195Z,9.457117
2023-03-11T10:24:20.156Z,9.457278
2023-03-11T10:25:20.150Z,9.457048
2023-03-11T10:26:20.139Z,9.457270
2023-03-11T10:27:20.134Z,9.456853
2023-03-11T10:28:20.185Z,9.456445
2023-03-11T10:29:20.141Z,9.456570
2023-03-11T10:30:20.130Z,9.456283
2023-03-11T10:31:20.140Z,9.456781
2023-03-11T10:32:20.131Z,9.457247
2023-03-11T10:33:20.098Z,9.457341
2023-03-11T10:34:20.082Z,9.457271
2023-03-11T10:35:20.044Z,9.457201
2023-03-11T10:36:20.029Z,9.457239
2023-03-11T10:37:20.030Z,9.457269
2023-03-11T10:38:20.031Z,9.457260
2023-03-11T10:39:20.034Z,9.457295
2023-03-11T10:40:52.396Z,9.457163
2023-03-11T10:41:19.991Z,9.457013
2023-03-11T10:42:19.986Z,9.457196
2023-03-11T10:43:19.966Z,9.456935
2023-03-11T10:44:19.970Z,9.456711
2023-03-11T10:45:19.939Z,9.457000
2023-03-11T10:46:19.985Z,9.456964
2023-03-11T10:47:20.905Z,9.456929
2023-03-11T10:48:19.934Z,9.456809
2023-03-11T10:49:19.931Z,9.456998
2023-03-11T10:50:20.008Z,9.457209
2023-03-11T10:51:19.897Z,9.456993
2023-03-11T10:52:19.885Z,9.456738
2023-03-11T10:53:19.887Z,9.457170
2023-03-11T10:54:19.873Z,9.456349
2023-03-11T10:55:19.859Z,9.456897
2023-03-11T10:56:19.828Z,9.456953
2023-03-11T10:57:19.837Z,9.457048
2023-03-11T10:58:19.808Z,9.457000
2023-03-11T10:59:19.821Z,9.457244
2023-03-11T11:00:19.787Z,9.456634
2023-03-11T11:01:19.813Z,9.456506
2023-03-11T11:02:19.768Z,9.456266
2023-03-11T11:03:19.769Z,9.456880
2023-03-11T11:04:19.817Z,9.457867
2023-03-11T11:05:19.741Z,9.457620
2023-03-11T11:06:19.727Z,9.457390
2023-03-11T11:07:20.720Z,9.456886
2023-03-11T11:08:19.727Z,9.456725
2023-03-11T11:09:19.718Z,9.456415
2023-03-11T11:10:19.707Z,9.456851
2023-03-11T11:11:19.682Z,9.456574
2023-03-11T11:12:19.672Z,9.456622
2023-03-11T11:13:19.694Z,9.456576
2023-03-11T11:14:19.670Z,9.457015
2023-03-11T11:15:19.642Z,9.457263
2023-03-11T11:16:19.664Z,9.456806
2023-03-11T11:17:19.620Z,9.456940
2023-03-11T11:18:19.658Z,9.456820
2023-03-11T11:19:19.857Z,9.456567
2023-03-11T11:20:19.592Z,9.456567
2023-03-11T11:21:19.596Z,9.456567
2023-03-11T11:22:19.563Z,9.456567
2023-03-11T11:23:19.569Z,9.456567
2023-03-11T11:24:19.579Z,9.456117
2023-03-11T11:25:19.601Z,9.456542
2023-03-11T11:26:19.542Z,9.456360
2023-03-11T11:27:19.563Z,9.457251
2023-03-11T11:28:19.519Z,9.457339
2023-03-11T11:29:19.579Z,9.457314
2023-03-11T11:30:19.698Z,9.457263
2023-03-11T11:31:19.546Z,9.457311
2023-03-11T11:32:19.584Z,9.457234
2023-03-11T11:33:19.472Z,9.457283
2023-03-11T11:34:21.310Z,9.457497
2023-03-11T11:35:19.480Z,9.457339
2023-03-11T11:36:19.435Z,9.457251
2023-03-11T11:37:19.433Z,9.457511
2023-03-11T11:38:19.425Z,9.457410
2023-03-11T11:39:19.427Z,9.457557
2023-03-11T11:40:19.388Z,9.457373
2023-03-11T11:41:19.372Z,9.457171
2023-03-11T11:42:19.362Z,9.457275
2023-03-11T11:43:19.400Z,9.457363
2023-03-11T11:44:19.358Z,9.457374
2023-03-11T11:45:19.341Z,9.457295
2023-03-11T11:46:19.381Z,9.457335
2023-03-11T11:47:19.311Z,9.457335
2023-03-11T11:48:19.298Z,9.457277
2023-03-11T11:49:19.311Z,9.457189
2023-03-11T11:50:19.289Z,9.457198
2023-03-11T11:51:19.260Z,9.457005
2023-03-11T11:52:19.257Z,9.457088
2023-03-11T11:53:19.251Z,9.457388
2023-03-11T11:54:19.253Z,9.457211
2023-03-11T11:55:19.260Z,9.457267
2023-03-11T11:56:19.207Z,9.457407
2023-03-11T11:57:19.197Z,9.457329
2023-03-11T11:58:19.185Z,9.457498
2023-03-11T11:59:19.200Z,9.457568
2023-03-11T12:00:19.173Z,9.457317
2023-03-11T12:01:19.159Z,9.457545
2023-03-11T12:02:19.147Z,9.457749
2023-03-11T12:03:19.187Z,9.457785
2023-03-11T12:04:19.142Z,9.457673
2023-03-11T12:05:19.117Z,9.457708
2023-03-11T12:06:19.099Z,9.457355
2023-03-11T12:07:19.105Z,9.457259
2023-03-11T12:08:19.085Z,9.457271
2023-03-11T12:09:19.097Z,9.457299